Aeroporto :
LOGIN :

Iscrizione | Disclaimer

   EN    FR    IT 

 










Sommario :    VFR   VFR Marginale   IFR   IFR Intensivo   IFR Molto Intensivo
Visibilità : 
Base nubi : 
>= 8 km
>= 3000ft
5 / 8 km
1000 / 3000 ft
1500m / 5 km
500 / 1000 ft
800 / 1500m
200 / 500 ft
< 800m
< 200 ft
Simboli :   Temporali  Nebbia  Neve Forte  Precipitazioni Forti  Vento > 20 kt
SIGMETs :   Varie  Temporali  Ghiacco  Turbolenza  Onda orograficha  Ceneri Vulcaniche







- Altitudine del aeroporto : 63 ft
- Codice IATA : BZM


EHWO - Woensdrecht Airbase

ULTIMO METAR :
  • 220625Z AUTO 07005KT 030V100 0150 -UP VV000 05/05 Q1030 RED 09006KT 0200 FG VV000 BECMG 0600 OVC001

METARs OBSOLETI :
  • 220555Z AUTO 06006KT 0200 -RA VV000 05/05 Q1030 RED
  • 220525Z AUTO 09004KT 0250 -RA VV000 05/05 Q1030 RED
  • 220455Z AUTO 09004KT 0200 -RA VV000 05/05 Q1030 RED
  • 220425Z AUTO 08005KT 0200 -UP VV000 05/05 Q1030 RED
  • 220355Z AUTO 07005KT 0300 FG VV000 05/04 Q1030 RED
  • 220344Z AUTO 08004KT 0200 FG VV000 03/02 Q1030 RED

TAF TAF EHWO
Valido dal 22 a 06 ore il 22 a 18 ore UTC


220527Z 2206/2218 09004KT 0200 FG VV000
BECMG 2208/2210 15007KT 2500 BR SCT003 BKN007
BECMG 2209/2212 19008KT CAVOK
BECMG 2214/2216 25005KT
Nessun NOTAM noto per questo aeroporto.



MetMap, La meteo Aeronautica in un colpo d'occhio ! - Copyright ORBIFLY Dicembre 2007 - Disclaimer

ORBIFLY MET'MAP TEAM :

Programmazione e sviluppo : Alexandra Zaïnal
Concezione e sviluppo : Baudouin d'Aumeries
Co-Programmazione e sviluppo : Marc-Olivier Méhu
Supporto tecnico e logistico : Manuel Goepfert
Aiuto per la traduzione : Arnaldo La Scala

Contatto : metmap@orbifly.com




FONTI E CREDITI :

   NOAA